YWLM/NTL METAR and TAF weather

Enter ICAO airport designator
Station Type Date Time Source
YWLM METAR 2021/07/30 07:00 UTC NOAA

YWLM 300700Z AUTO 09003KT 9999 // NCD 16/07 Q1018


Station Type Date Time Source
YWLM Decoded METAR 2021/07/30 07:00 UTC NOAA

Station name not available
Jul 30, 2021 - 03:00 AM EDT / 2021.07.30 0700 UTC
Wind: from the E (090 degrees) at 3 MPH (3 KT):0
Visibility: greater than 7 mile(s):0
Temperature: 60 F (16 C)
Dew Point: 44 F (7 C)
Relative Humidity: 55%
Pressure (altimeter): 30.06 in. Hg (1018 hPa)
ob: YWLM 300700Z AUTO 09003KT 9999 // NCD 16/07 Q1018
cycle: 7

Station Type Date Time Source
YWLM TAF 2021/07/30 06:45 UTC NOAA

TAF TAF
AMD YWLM 300544Z 3006/3106 05008KT CAVOK
FM301100 33005KT CAVOK
FM302300 35010KT CAVOK

Example: see airport list